Garneill, Montana
Current Conditions -  °F | °C
As of 4:54 PM on Sunday 21 Dec 2014 (Local Time) from KLWT Reporting Station
Overcast Overcast  
Wind Chill: 31°   Ceiling: 4000
Heat Index: 39°   Visibility: 10mi
Dew Point: 30°   Wind: 15mph
Humidity: 70%   Direction: 300°WNW
Pressure: 29.55"   Gusts: 23mph
Location:  46.75°N, 109.75°W
Report Text: KLWT 212354Z AUTO 30013G20KT 10SM OVC040 04/M01 A2955 RMK AO2 PK WND 30033/2307 RAB11E29 SLP013 P0000 60000 T00391011 10083 20033 53044
Loading
Personal Weather Stations






























Interactive Weather Map New forecast layout! Learn more

10-Day Weather Forecast

Advertisements
Track Severe Weather on mobile